createdAt,value
2023-02-12T00:01:09.253Z,30.73
2023-02-12T00:03:36.855Z,27.23
2023-02-12T00:06:04.196Z,30.70
2023-02-12T00:08:31.400Z,30.73
2023-02-12T00:10:59.809Z,29.37
2023-02-12T00:13:26.903Z,30.63
2023-02-12T00:15:54.508Z,28.37
2023-02-12T00:18:22.116Z,27.57
2023-02-12T00:20:49.205Z,29.90
2023-02-12T00:23:16.463Z,30.73
2023-02-12T00:25:43.627Z,27.83
2023-02-12T00:28:10.887Z,26.03
2023-02-12T00:30:38.089Z,26.47
2023-02-12T00:33:05.240Z,25.87
2023-02-12T00:35:32.331Z,29.20
2023-02-12T00:37:59.410Z,28.10
2023-02-12T00:40:26.620Z,29.80
2023-02-12T00:42:53.694Z,32.40
2023-02-12T00:45:20.787Z,29.00
2023-02-12T00:47:48.151Z,29.83
2023-02-12T00:50:15.270Z,28.57
2023-02-12T00:52:42.381Z,27.83
2023-02-12T00:55:09.535Z,31.87
2023-02-12T00:57:36.682Z,30.73
2023-02-12T01:00:04.362Z,27.83
2023-02-12T01:02:31.434Z,27.90
2023-02-12T01:04:58.684Z,29.73
2023-02-12T01:07:25.950Z,26.50
2023-02-12T01:09:53.030Z,33.87
2023-02-12T01:12:20.176Z,30.90
2023-02-12T01:14:47.261Z,29.83
2023-02-12T01:17:14.625Z,29.57
2023-02-12T01:19:42.057Z,30.97
2023-02-12T01:22:09.248Z,29.87
2023-02-12T01:24:36.339Z,31.17
2023-02-12T01:27:03.463Z,29.10
2023-02-12T01:29:30.589Z,32.23
2023-02-12T01:31:57.776Z,26.93
2023-02-12T01:34:25.011Z,30.40
2023-02-12T01:36:52.107Z,28.47
2023-02-12T01:39:19.181Z,28.83
2023-02-12T01:41:46.300Z,28.33
2023-02-12T01:44:13.367Z,26.33
2023-02-12T01:46:42.693Z,26.43
2023-02-12T01:49:12.425Z,27.60
2023-02-12T01:51:41.726Z,31.07
2023-02-12T01:54:11.183Z,29.30
2023-02-12T01:56:38.702Z,25.37
2023-02-12T01:59:06.055Z,29.07
2023-02-12T02:01:34.090Z,29.97
2023-02-12T02:04:10.280Z,26.17
2023-02-12T02:06:41.277Z,26.80
2023-02-12T02:09:08.491Z,29.57
2023-02-12T02:11:54.069Z,27.47
2023-02-12T02:14:33.538Z,28.50
2023-02-12T02:17:19.055Z,28.00
2023-02-12T02:19:46.087Z,28.17
2023-02-12T02:22:31.828Z,27.90
2023-02-12T02:25:14.170Z,26.73
2023-02-12T02:27:44.733Z,28.33
2023-02-12T02:30:17.743Z,25.17
2023-02-12T02:32:44.819Z,27.57
2023-02-12T02:35:32.237Z,25.93
2023-02-12T02:38:14.125Z,27.37
2023-02-12T02:40:53.856Z,26.50
2023-02-12T02:43:27.560Z,25.10
2023-02-12T02:46:02.514Z,24.70
2023-02-12T02:48:41.222Z,23.77
2023-02-12T02:51:14.628Z,28.80
2023-02-12T02:53:47.032Z,27.50
2023-02-12T02:56:17.871Z,28.47
2023-02-12T02:58:56.372Z,27.70
2023-02-12T03:01:29.684Z,30.87
2023-02-12T03:04:01.262Z,27.40
2023-02-12T03:06:35.898Z,30.13
2023-02-12T03:09:07.007Z,29.77
2023-02-12T03:11:35.262Z,27.87
2023-02-12T03:14:08.408Z,27.67
2023-02-12T03:16:37.515Z,30.37
2023-02-12T03:19:11.466Z,26.90
2023-02-12T03:21:42.458Z,27.00
2023-02-12T03:24:17.259Z,25.50
2023-02-12T03:26:47.446Z,26.07
2023-02-12T03:29:14.922Z,25.17
2023-02-12T03:32:02.265Z,22.53
2023-02-12T03:34:42.287Z,26.80
2023-02-12T03:37:11.968Z,24.27
2023-02-12T03:39:57.892Z,23.93
2023-02-12T03:42:33.102Z,27.17
2023-02-12T03:45:04.974Z,25.80
2023-02-12T03:47:34.886Z,26.70
2023-02-12T03:50:07.197Z,24.83
2023-02-12T03:52:34.408Z,29.53
2023-02-12T03:55:01.604Z,25.53
2023-02-12T03:57:32.149Z,28.03
2023-02-12T03:59:59.697Z,25.50
2023-02-12T04:02:27.002Z,24.90
2023-02-12T04:04:54.136Z,27.23
2023-02-12T04:07:21.395Z,27.90
2023-02-12T04:09:48.581Z,21.67
2023-02-12T04:12:15.653Z,27.77
2023-02-12T04:14:45.842Z,27.50
2023-02-12T04:17:33.386Z,27.17
2023-02-12T04:20:06.534Z,26.20
2023-02-12T04:22:55.861Z,27.17
2023-02-12T04:25:23.012Z,24.27
2023-02-12T04:27:57.212Z,26.30
2023-02-12T04:30:36.203Z,26.60
2023-02-12T04:33:04.792Z,26.53
2023-02-12T04:35:47.398Z,24.20
2023-02-12T04:38:18.457Z,28.07
2023-02-12T04:40:45.657Z,24.80
2023-02-12T04:43:12.803Z,27.40
2023-02-12T04:45:39.971Z,26.90
2023-02-12T04:48:07.333Z,23.50
2023-02-12T04:50:46.315Z,25.23
2023-02-12T04:53:13.430Z,23.10
2023-02-12T04:55:41.735Z,27.00
2023-02-12T04:58:08.865Z,26.07
2023-02-12T05:00:35.991Z,25.00
2023-02-12T05:03:03.463Z,28.27
2023-02-12T05:05:30.656Z,25.63
2023-02-12T05:07:57.763Z,27.60
2023-02-12T05:10:24.996Z,24.00
2023-02-12T05:12:55.627Z,26.37
2023-02-12T05:15:23.073Z,23.87
2023-02-12T05:17:50.254Z,27.27
2023-02-12T05:20:17.459Z,24.97
2023-02-12T05:22:44.540Z,27.17
2023-02-12T05:25:11.815Z,25.93
2023-02-12T05:27:38.969Z,26.23
2023-02-12T05:30:06.577Z,25.83
2023-02-12T05:32:33.716Z,25.07
2023-02-12T05:35:00.858Z,27.67
2023-02-12T05:37:28.385Z,26.50
2023-02-12T05:39:55.546Z,27.27
2023-02-12T05:42:22.628Z,27.43
2023-02-12T05:44:49.729Z,25.53
2023-02-12T05:47:16.849Z,24.93
2023-02-12T05:49:43.971Z,26.53
2023-02-12T05:52:11.058Z,28.07
2023-02-12T05:54:38.170Z,28.90
2023-02-12T05:57:05.242Z,28.13
2023-02-12T05:59:32.352Z,30.07
2023-02-12T06:01:59.437Z,26.83
2023-02-12T06:04:27.858Z,27.70
2023-02-12T06:06:55.850Z,25.83
2023-02-12T06:09:23.834Z,29.73
2023-02-12T06:11:50.933Z,29.10
2023-02-12T06:14:19.387Z,26.30
2023-02-12T06:16:47.388Z,26.60
2023-02-12T06:19:14.916Z,28.33
2023-02-12T06:21:42.110Z,27.73
2023-02-12T06:24:10.310Z,27.43
2023-02-12T06:26:37.433Z,27.60
2023-02-12T06:29:04.530Z,25.60
2023-02-12T06:31:33.139Z,29.80
2023-02-12T06:34:02.350Z,27.90
2023-02-12T06:36:29.915Z,28.87
2023-02-12T06:38:57.636Z,27.13
2023-02-12T06:41:24.921Z,26.60
2023-02-12T06:43:52.098Z,28.60
2023-02-12T06:46:19.420Z,26.77
2023-02-12T06:48:46.567Z,29.83
2023-02-12T06:51:14.871Z,31.47
2023-02-12T06:53:42.120Z,27.63
2023-02-12T06:56:11.780Z,29.93
2023-02-12T06:58:39.698Z,29.13
2023-02-12T07:01:19.945Z,28.30
2023-02-12T07:03:51.459Z,30.13
2023-02-12T07:06:19.183Z,26.70
2023-02-12T07:08:46.492Z,27.87
2023-02-12T07:11:13.780Z,29.13
2023-02-12T07:13:41.400Z,27.33
2023-02-12T07:16:09.635Z,25.23
2023-02-12T07:18:37.268Z,27.00
2023-02-12T07:21:05.399Z,29.90
2023-02-12T07:23:32.729Z,28.30
2023-02-12T07:26:01.258Z,28.17
2023-02-12T07:28:28.635Z,32.70
2023-02-12T07:30:55.820Z,26.23
2023-02-12T07:33:22.979Z,32.27
2023-02-12T07:35:50.122Z,28.70
2023-02-12T07:38:17.185Z,26.87
2023-02-12T07:40:44.702Z,36.43
2023-02-12T07:43:11.774Z,31.53
2023-02-12T07:45:38.995Z,30.90
2023-02-12T07:48:06.149Z,33.20
2023-02-12T07:50:33.265Z,30.30
2023-02-12T07:53:00.359Z,30.07
2023-02-12T07:55:27.480Z,32.33
2023-02-12T07:57:54.615Z,32.07
2023-02-12T08:00:21.925Z,32.90
2023-02-12T08:02:53.092Z,33.87
2023-02-12T08:05:20.503Z,29.87
2023-02-12T08:07:47.602Z,29.47
2023-02-12T08:10:14.908Z,31.50
2023-02-12T08:12:41.975Z,32.30
2023-02-12T08:15:10.491Z,34.23
2023-02-12T08:17:37.995Z,33.20
2023-02-12T08:20:05.258Z,30.17
2023-02-12T08:22:32.338Z,29.47
2023-02-12T08:25:00.052Z,30.77
2023-02-12T08:27:27.423Z,29.37
2023-02-12T08:29:54.524Z,30.27
2023-02-12T08:32:21.615Z,31.37
2023-02-12T08:34:48.691Z,30.77
2023-02-12T08:37:17.017Z,33.43
2023-02-12T08:39:44.118Z,30.27
2023-02-12T08:42:11.247Z,35.73
2023-02-12T08:44:38.394Z,24.93
2023-02-12T08:47:07.083Z,32.87
2023-02-12T08:49:34.223Z,27.27
2023-02-12T08:52:02.411Z,31.57
2023-02-12T08:54:30.495Z,32.37
2023-02-12T08:56:59.059Z,32.60
2023-02-12T08:59:26.200Z,30.33
2023-02-12T09:01:53.662Z,27.80
2023-02-12T09:04:23.208Z,32.07
2023-02-12T09:07:00.890Z,30.53
2023-02-12T09:09:28.475Z,31.30
2023-02-12T09:11:55.609Z,34.47
2023-02-12T09:14:25.526Z,28.23
2023-02-12T09:16:53.444Z,30.73
2023-02-12T09:19:20.996Z,27.33
2023-02-12T09:21:53.300Z,28.93
2023-02-12T09:24:21.989Z,26.33
2023-02-12T09:26:49.071Z,26.20
2023-02-12T09:29:16.442Z,29.80
2023-02-12T09:31:43.738Z,31.73
2023-02-12T09:34:11.037Z,28.17
2023-02-12T09:36:39.204Z,30.50
2023-02-12T09:39:06.446Z,26.63
2023-02-12T09:41:52.098Z,25.83
2023-02-12T09:44:26.388Z,24.17
2023-02-12T09:46:53.470Z,25.13
2023-02-12T09:49:23.610Z,25.83
2023-02-12T09:51:53.828Z,28.80
2023-02-12T09:54:25.415Z,26.20
2023-02-12T09:56:53.895Z,23.27
2023-02-12T09:59:32.430Z,24.80
2023-02-12T10:02:01.350Z,22.30
2023-02-12T10:04:29.225Z,19.93
2023-02-12T10:07:08.668Z,26.93
2023-02-12T10:09:43.786Z,20.33
2023-02-12T10:12:29.518Z,20.97
2023-02-12T10:15:15.336Z,19.27
2023-02-12T10:17:48.991Z,21.20
2023-02-12T10:20:36.349Z,20.03
2023-02-12T10:23:03.412Z,17.50
2023-02-12T10:25:39.536Z,18.57
2023-02-12T10:28:12.543Z,15.93
2023-02-12T10:30:57.950Z,14.20
2023-02-12T10:33:30.780Z,12.97
2023-02-12T10:36:03.390Z,16.43
2023-02-12T10:38:32.526Z,17.93
2023-02-12T10:41:01.899Z,12.90
2023-02-12T10:43:29.309Z,14.13
2023-02-12T10:45:57.234Z,15.80
2023-02-12T10:48:38.750Z,15.57
2023-02-12T10:51:08.895Z,15.13
2023-02-12T10:53:37.353Z,13.17
2023-02-12T10:56:12.952Z,14.00
2023-02-12T10:58:40.977Z,12.47
2023-02-12T11:01:15.988Z,14.60
2023-02-12T11:03:43.070Z,14.90
2023-02-12T11:06:12.372Z,14.27
2023-02-12T11:08:40.285Z,15.50
2023-02-12T11:11:14.820Z,13.70
2023-02-12T11:13:46.004Z,12.70
2023-02-12T11:16:16.370Z,15.93
2023-02-12T11:18:43.859Z,13.60
2023-02-12T11:21:13.081Z,16.20
2023-02-12T11:23:41.606Z,15.70
2023-02-12T11:26:20.506Z,16.90
2023-02-12T11:28:53.416Z,16.87
2023-02-12T11:31:29.927Z,17.40
2023-02-12T11:34:18.760Z,12.10
2023-02-12T11:36:53.417Z,18.37
2023-02-12T11:39:29.570Z,11.50
2023-02-12T11:42:01.471Z,15.40
2023-02-12T11:44:34.823Z,10.80
2023-02-12T11:47:07.012Z,11.17
2023-02-12T11:49:35.368Z,12.57
2023-02-12T11:52:03.813Z,11.93
2023-02-12T11:54:33.575Z,11.43
2023-02-12T11:57:00.667Z,14.73
2023-02-12T11:59:37.985Z,12.83
2023-02-12T12:02:14.768Z,13.03
2023-02-12T12:04:42.536Z,11.30
2023-02-12T12:07:22.540Z,10.23
2023-02-12T12:10:08.474Z,12.20
2023-02-12T12:12:35.843Z,12.60
2023-02-12T12:15:48.487Z,13.50
2023-02-12T12:18:43.148Z,10.60
2023-02-12T12:21:28.746Z,14.27
2023-02-12T12:24:04.937Z,13.20
2023-02-12T12:26:34.397Z,11.83
2023-02-12T12:29:06.603Z,11.53
2023-02-12T12:31:39.620Z,9.37
2023-02-12T12:34:12.551Z,9.40
2023-02-12T12:37:02.445Z,11.20
2023-02-12T12:39:35.512Z,8.03
2023-02-12T12:42:18.239Z,12.93
2023-02-12T12:45:05.193Z,9.83
2023-02-12T12:47:44.529Z,10.83
2023-02-12T12:50:23.561Z,10.17
2023-02-12T12:53:10.642Z,7.53
2023-02-12T12:56:01.015Z,8.57
2023-02-12T12:58:37.829Z,12.20
2023-02-12T13:01:18.779Z,10.30
2023-02-12T13:04:01.247Z,8.73
2023-02-12T13:06:37.911Z,10.77
2023-02-12T13:09:23.706Z,11.37
2023-02-12T13:11:50.754Z,12.83
2023-02-12T13:14:28.299Z,10.07
2023-02-12T13:16:55.437Z,9.13
2023-02-12T13:19:31.890Z,8.30
2023-02-12T13:22:09.418Z,9.40
2023-02-12T13:24:44.454Z,10.77
2023-02-12T13:27:21.066Z,9.97
2023-02-12T13:29:48.170Z,9.10
2023-02-12T13:32:26.575Z,9.07
2023-02-12T13:34:54.653Z,9.40
2023-02-12T13:37:31.819Z,9.13
2023-02-12T13:40:01.051Z,10.17
2023-02-12T13:42:36.359Z,10.43
2023-02-12T13:45:06.460Z,8.67
2023-02-12T13:47:54.224Z,8.60
2023-02-12T13:50:27.272Z,12.80
2023-02-12T13:53:04.039Z,8.87
2023-02-12T13:55:47.280Z,10.70
2023-02-12T13:58:34.762Z,10.43
2023-02-12T14:01:08.552Z,10.23
2023-02-12T14:03:36.765Z,15.23
2023-02-12T14:06:10.008Z,11.07
2023-02-12T14:08:39.984Z,9.43
2023-02-12T14:11:19.942Z,6.77
2023-02-12T14:13:55.738Z,7.50
2023-02-12T14:16:31.798Z,6.67
2023-02-12T14:19:17.365Z,7.07
2023-02-12T14:21:44.549Z,9.80
2023-02-12T14:24:30.796Z,8.07
2023-02-12T14:26:57.915Z,6.90
2023-02-12T14:29:25.217Z,8.70
2023-02-12T14:31:52.472Z,7.63
2023-02-12T14:34:22.386Z,8.50
2023-02-12T14:37:09.470Z,7.93
2023-02-12T14:39:37.700Z,37.63
2023-02-12T14:42:07.515Z,15.53
2023-02-12T14:44:38.243Z,19.77
2023-02-12T14:47:34.556Z,11.13
2023-02-12T14:50:13.503Z,8.47
2023-02-12T14:52:41.474Z,7.73
2023-02-12T14:55:19.137Z,9.27
2023-02-12T14:57:46.650Z,9.97
2023-02-12T15:00:23.062Z,8.87
2023-02-12T15:03:16.820Z,7.53
2023-02-12T15:05:47.892Z,7.13
2023-02-12T15:08:47.600Z,9.80
2023-02-12T15:11:15.042Z,7.30
2023-02-12T15:13:57.608Z,8.33
2023-02-12T15:16:27.608Z,6.97
2023-02-12T15:19:00.936Z,7.67
2023-02-12T15:21:29.316Z,9.23
2023-02-12T15:24:02.239Z,7.20
2023-02-12T15:26:30.605Z,7.70
2023-02-12T15:28:57.694Z,7.33
2023-02-12T15:31:30.015Z,7.97
2023-02-12T15:33:58.875Z,9.23
2023-02-12T15:36:27.325Z,9.27
2023-02-12T15:39:05.014Z,8.47
2023-02-12T15:41:34.964Z,10.27
2023-02-12T15:44:03.120Z,8.07
2023-02-12T15:46:30.275Z,8.93
2023-02-12T15:48:57.971Z,7.87
2023-02-12T15:51:31.047Z,10.73
2023-02-12T15:53:58.970Z,6.97
2023-02-12T15:56:26.661Z,11.43
2023-02-12T15:58:54.755Z,9.67
2023-02-12T16:01:26.564Z,11.87
2023-02-12T16:03:54.845Z,14.23
2023-02-12T16:06:22.817Z,10.17
2023-02-12T16:08:51.287Z,9.93
2023-02-12T16:11:20.745Z,16.70
2023-02-12T16:13:49.375Z,13.43
2023-02-12T16:16:19.116Z,11.67
2023-02-12T16:18:46.650Z,13.03
2023-02-12T16:21:21.163Z,13.83
2023-02-12T16:23:49.971Z,17.17
2023-02-12T16:26:21.123Z,12.40
2023-02-12T16:28:49.468Z,16.83
2023-02-12T16:31:18.084Z,12.00
2023-02-12T16:33:49.825Z,21.70
2023-02-12T16:36:16.882Z,21.57
2023-02-12T16:38:46.980Z,25.27
2023-02-12T16:41:19.991Z,30.60
2023-02-12T16:43:47.729Z,22.70
2023-02-12T16:46:15.545Z,23.00
2023-02-12T16:48:44.475Z,24.00
2023-02-12T16:51:22.178Z,30.80
2023-02-12T16:53:50.020Z,22.43
2023-02-12T16:56:21.122Z,20.30
2023-02-12T16:58:58.998Z,19.50
2023-02-12T17:01:30.517Z,15.07
2023-02-12T17:03:58.235Z,11.13
2023-02-12T17:06:27.086Z,13.27
2023-02-12T17:08:54.149Z,11.87
2023-02-12T17:11:23.089Z,13.30
2023-02-12T17:13:51.041Z,10.87
2023-02-12T17:16:29.766Z,11.27
2023-02-12T17:18:57.662Z,10.37
2023-02-12T17:21:26.246Z,10.23
2023-02-12T17:23:56.825Z,9.70
2023-02-12T17:26:24.819Z,13.30
2023-02-12T17:28:52.233Z,9.53
2023-02-12T17:31:20.803Z,9.10
2023-02-12T17:33:48.146Z,15.83
2023-02-12T17:36:15.237Z,11.33
2023-02-12T17:38:42.419Z,10.93
2023-02-12T17:41:10.662Z,11.03
2023-02-12T17:43:37.756Z,9.80
2023-02-12T17:46:17.056Z,9.53
2023-02-12T17:48:44.143Z,11.93
2023-02-12T17:51:11.703Z,10.30
2023-02-12T17:53:39.438Z,11.33
2023-02-12T17:56:10.064Z,8.60
2023-02-12T17:58:37.179Z,10.10
2023-02-12T18:01:05.506Z,11.87
2023-02-12T18:03:32.701Z,10.43
2023-02-12T18:05:59.805Z,10.73
2023-02-12T18:08:26.880Z,9.43
2023-02-12T18:10:54.294Z,13.40
2023-02-12T18:13:21.481Z,13.57
2023-02-12T18:15:48.538Z,15.47
2023-02-12T18:18:16.711Z,13.70
2023-02-12T18:20:44.129Z,11.80
2023-02-12T18:23:12.503Z,14.07
2023-02-12T18:25:43.062Z,12.70
2023-02-12T18:28:10.621Z,14.53
2023-02-12T18:30:38.894Z,10.90
2023-02-12T18:33:06.287Z,12.17
2023-02-12T18:35:33.517Z,13.70
2023-02-12T18:38:00.808Z,13.30
2023-02-12T18:40:27.873Z,11.90
2023-02-12T18:42:55.008Z,11.27
2023-02-12T18:45:22.149Z,13.07
2023-02-12T18:47:50.252Z,13.07
2023-02-12T18:50:17.485Z,12.90
2023-02-12T18:52:44.561Z,15.23
2023-02-12T18:55:11.778Z,14.03
2023-02-12T18:57:38.883Z,16.53
2023-02-12T19:00:06.342Z,17.03
2023-02-12T19:02:33.416Z,16.37
2023-02-12T19:05:00.657Z,18.90
2023-02-12T19:07:27.789Z,19.67
2023-02-12T19:09:54.890Z,18.27
2023-02-12T19:12:22.004Z,19.57
2023-02-12T19:14:49.102Z,20.10
2023-02-12T19:17:16.203Z,16.07
2023-02-12T19:19:43.276Z,18.67
2023-02-12T19:22:10.352Z,16.90
2023-02-12T19:24:46.214Z,14.53
2023-02-12T19:27:14.032Z,16.50
2023-02-12T19:29:41.137Z,13.67
2023-02-12T19:32:08.435Z,15.20
2023-02-12T19:34:35.621Z,13.83
2023-02-12T19:37:02.702Z,16.93
2023-02-12T19:39:29.978Z,12.70
2023-02-12T19:41:57.181Z,14.97
2023-02-12T19:44:25.193Z,14.23
2023-02-12T19:46:53.004Z,15.80
2023-02-12T19:49:21.490Z,13.47
2023-02-12T19:51:49.195Z,13.67
2023-02-12T19:54:17.164Z,16.67
2023-02-12T19:56:44.690Z,14.87
2023-02-12T19:59:14.190Z,16.47
2023-02-12T20:01:41.424Z,16.50
2023-02-12T20:04:08.641Z,15.27
2023-02-12T20:06:36.972Z,14.50
2023-02-12T20:09:05.761Z,16.37
2023-02-12T20:11:33.575Z,15.37
2023-02-12T20:14:01.752Z,17.40
2023-02-12T20:16:33.709Z,15.60
2023-02-12T20:19:05.250Z,16.93
2023-02-12T20:21:32.492Z,17.27
2023-02-12T20:24:01.660Z,14.67
2023-02-12T20:26:30.154Z,19.60
2023-02-12T20:28:57.269Z,18.20
2023-02-12T20:31:26.664Z,16.93
2023-02-12T20:33:54.731Z,17.77
2023-02-12T20:36:22.118Z,19.00
2023-02-12T20:38:51.709Z,19.73
2023-02-12T20:41:18.878Z,17.10
2023-02-12T20:43:46.061Z,19.27
2023-02-12T20:46:17.798Z,16.27
2023-02-12T20:48:45.053Z,18.33
2023-02-12T20:51:13.432Z,19.57
2023-02-12T20:53:41.362Z,21.20
2023-02-12T20:56:10.717Z,20.73
2023-02-12T20:58:38.823Z,27.50
2023-02-12T21:01:07.014Z,23.30
2023-02-12T21:03:34.150Z,24.97
2023-02-12T21:06:01.669Z,24.50
2023-02-12T21:08:29.144Z,29.67
2023-02-12T21:11:00.081Z,23.83
2023-02-12T21:13:27.271Z,25.37
2023-02-12T21:16:03.402Z,23.73
2023-02-12T21:18:30.541Z,23.50
2023-02-12T21:21:01.252Z,24.87
2023-02-12T21:23:28.333Z,22.97
2023-02-12T21:26:02.619Z,22.40
2023-02-12T21:28:30.147Z,26.70
2023-02-12T21:30:57.296Z,24.00
2023-02-12T21:33:24.451Z,25.43
2023-02-12T21:35:51.534Z,22.47
2023-02-12T21:38:18.645Z,22.63
2023-02-12T21:40:45.786Z,26.00
2023-02-12T21:43:12.934Z,23.43
2023-02-12T21:45:40.043Z,27.83
2023-02-12T21:48:09.027Z,23.07
2023-02-12T21:50:36.170Z,23.60
2023-02-12T21:53:03.324Z,23.97
2023-02-12T21:55:30.411Z,24.10
2023-02-12T21:57:57.476Z,21.40
2023-02-12T22:00:24.632Z,25.33
2023-02-12T22:02:51.772Z,26.63
2023-02-12T22:05:18.922Z,22.53
2023-02-12T22:07:49.498Z,22.40
2023-02-12T22:10:16.794Z,21.47
2023-02-12T22:12:43.928Z,25.83
2023-02-12T22:15:11.121Z,25.87
2023-02-12T22:17:38.259Z,29.03
2023-02-12T22:20:05.543Z,23.40
2023-02-12T22:22:32.609Z,23.43
2023-02-12T22:24:59.722Z,23.03
2023-02-12T22:27:26.785Z,21.40
2023-02-12T22:29:53.916Z,19.70
2023-02-12T22:32:21.083Z,23.37
2023-02-12T22:34:48.292Z,21.90
2023-02-12T22:37:15.383Z,20.97
2023-02-12T22:39:42.479Z,21.60
2023-02-12T22:42:09.701Z,23.03
2023-02-12T22:44:37.064Z,20.73
2023-02-12T22:47:04.208Z,21.87
2023-02-12T22:49:31.299Z,21.20
2023-02-12T22:51:58.369Z,23.47
2023-02-12T22:54:25.459Z,21.47
2023-02-12T22:56:52.658Z,19.50
2023-02-12T22:59:19.779Z,25.53
2023-02-12T23:01:46.982Z,22.43
2023-02-12T23:04:15.589Z,21.73
2023-02-12T23:06:42.782Z,21.33
2023-02-12T23:09:11.530Z,20.87
2023-02-12T23:11:39.361Z,18.90
2023-02-12T23:14:06.643Z,21.27
2023-02-12T23:16:33.748Z,20.33
2023-02-12T23:19:01.613Z,20.93
2023-02-12T23:21:29.540Z,20.13
2023-02-12T23:23:56.814Z,22.83
2023-02-12T23:26:24.292Z,21.60
2023-02-12T23:28:51.385Z,22.03
2023-02-12T23:31:18.621Z,21.00
2023-02-12T23:33:45.920Z,20.67
2023-02-12T23:36:13.034Z,20.97
2023-02-12T23:38:40.113Z,23.40
2023-02-12T23:41:08.506Z,19.80
2023-02-12T23:43:35.592Z,20.90
2023-02-12T23:46:03.990Z,20.80
2023-02-12T23:48:31.112Z,20.00
2023-02-12T23:50:59.953Z,20.73
2023-02-12T23:53:27.227Z,20.53
2023-02-12T23:55:54.350Z,21.30
2023-02-12T23:58:21.740Z,22.43
